Time;durP1;ratioP1;P1;durP2;ratioP2;P2;SDS_P1;SDS_P2;PMS_P1;PMS_P2;Temp;Humidity;BMP_temperature;BMP_pressure;BME280_temperature;BME280_humidity;BME280_pressure;Samples;Min_cycle;Max_cycle;Signal;HPM_P1;HPM_P2
2021/12/15 00:43:45;;;;;;;;;53.25;41.50;;;;;;;;5115414;27;45368;-82
2021/12/15 00:46:10;;;;;;;;;55.33;45.67;;;;;;;;5096990;27;45467;-83
2021/12/15 00:48:35;;;;;;;;;55.67;44.00;;;;;;;;5097003;27;45381;-84
2021/12/15 00:51:00;;;;;;;;;54.50;43.00;;;;;;;;5096977;27;45536;-83
2021/12/15 00:53:26;;;;;;;;;53.00;41.33;;;;;;;;5096491;27;48217;-82
2021/12/15 00:55:51;;;;;;;;;57.25;44.75;;;;;;;;5115463;27;45353;-82
2021/12/15 00:58:17;;;;;;;;;53.67;44.00;;;;;;;;5096697;27;45374;-83
2021/12/15 01:00:55;;;;;;;;;57.50;43.00;;;;;;;;5096751;27;45399;-82
2021/12/15 01:03:20;;;;;;;;;47.25;41.50;;;;;;;;5091745;27;46377;-83
2021/12/15 01:05:47;;;;;;;;;55.33;42.67;;;;;;;;5096687;27;45417;-83
2021/12/15 01:08:16;;;;;;;;;55.75;45.25;;;;;;;;5096261;27;45488;-83
2021/12/15 01:10:59;;;;;;;;;51.00;41.75;;;;;;;;5115269;27;45451;-82
2021/12/15 01:21:38;;;;;;;;;57.00;45.00;;;;;;;;5114764;27;45338;-82
2021/12/15 01:24:04;;;;;;;;;55.67;46.67;;;;;;;;5096560;27;46064;-84
2021/12/15 01:26:30;;;;;;;;;51.50;43.25;;;;;;;;5114945;27;45713;-82
2021/12/15 01:28:55;;;;;;;;;52.00;43.25;;;;;;;;5096371;27;45383;-82
2021/12/15 01:31:20;;;;;;;;;53.00;42.67;;;;;;;;5114844;27;45546;-83
2021/12/15 01:33:46;;;;;;;;;50.00;42.33;;;;;;;;5096224;27;46533;-82
2021/12/15 01:36:11;;;;;;;;;54.00;44.67;;;;;;;;5114921;27;45370;-82
2021/12/15 01:38:38;;;;;;;;;53.75;44.00;;;;;;;;5095688;27;45384;-82
2021/12/15 01:41:04;;;;;;;;;57.25;45.25;;;;;;;;5114926;27;45397;-82
2021/12/15 01:49:16;;;;;;;;;57.00;47.25;;;;;;;;5114653;27;45369;-84
2021/12/15 01:51:42;;;;;;;;;56.25;44.25;;;;;;;;5087356;27;45411;-83
2021/12/15 01:54:08;;;;;;;;;58.00;47.50;;;;;;;;5094054;27;45522;-82
2021/12/15 01:56:34;;;;;;;;;55.00;45.25;;;;;;;;5092435;27;45909;-82
2021/12/15 01:58:59;;;;;;;;;54.00;44.25;;;;;;;;5092646;27;45428;-82
2021/12/15 02:01:27;;;;;;;;;56.75;46.50;;;;;;;;5092601;27;45553;-82
2021/12/15 02:03:53;;;;;;;;;56.50;44.50;;;;;;;;5092381;27;48490;-83
2021/12/15 02:06:18;;;;;;;;;51.00;42.25;;;;;;;;5092444;27;45464;-83
2021/12/15 02:08:45;;;;;;;;;53.67;44.00;;;;;;;;5093466;27;45384;-83
2021/12/15 02:11:10;;;;;;;;;55.00;44.50;;;;;;;;5093790;27;45453;-82
2021/12/15 02:13:36;;;;;;;;;55.50;45.00;;;;;;;;5093431;27;46152;-82
2021/12/15 02:16:03;;;;;;;;;54.00;43.00;;;;;;;;5092365;27;45483;-83
2021/12/15 02:18:30;;;;;;;;;57.25;45.00;;;;;;;;5092134;27;45372;-82
2021/12/15 02:20:58;;;;;;;;;55.50;44.50;;;;;;;;5093642;27;45444;-83
2021/12/15 02:23:31;;;;;;;;;57.75;47.25;;;;;;;;5093374;27;48159;-83
2021/12/15 02:25:57;;;;;;;;;54.00;44.25;;;;;;;;5095994;27;45820;-83
2021/12/15 02:28:22;;;;;;;;;56.33;47.33;;;;;;;;5095963;27;45314;-82
2021/12/15 02:30:56;;;;;;;;;49.00;42.00;;;;;;;;5095539;27;45329;-82
2021/12/15 02:33:43;;;;;;;;;53.25;42.75;;;;;;;;5095594;27;46141;-82
2021/12/15 02:38:52;;;;;;;;;53.25;42.50;;;;;;;;5097340;27;45491;-82
2021/12/15 02:41:21;;;;;;;;;51.67;40.33;;;;;;;;5095572;27;45280;-82
2021/12/15 02:43:52;;;;;;;;;49.00;41.50;;;;;;;;5096806;27;45456;-82
2021/12/15 02:46:18;;;;;;;;;54.25;44.75;;;;;;;;5097024;27;45277;-83
2021/12/15 02:48:43;;;;;;;;;46.00;39.75;;;;;;;;5096795;27;45522;-82
2021/12/15 02:51:09;;;;;;;;;45.75;39.00;;;;;;;;5098638;27;45244;-82
2021/12/15 02:53:34;;;;;;;;;45.00;37.25;;;;;;;;5098380;27;47134;-82
2021/12/15 02:55:59;;;;;;;;;45.67;38.67;;;;;;;;5099106;27;45628;-82
2021/12/15 02:58:31;;;;;;;;;42.33;37.00;;;;;;;;5116875;27;45416;-82
2021/12/15 03:01:05;;;;;;;;;44.00;37.75;;;;;;;;5117384;27;45551;-82
2021/12/15 03:06:23;;;;;;;;;48.00;40.25;;;;;;;;5117282;27;45874;-82
2021/12/15 03:09:08;;;;;;;;;45.25;37.75;;;;;;;;5098593;27;45324;-82
2021/12/15 03:17:00;;;;;;;;;46.75;37.50;;;;;;;;5117067;27;45628;-83
2021/12/15 03:19:26;;;;;;;;;44.67;38.00;;;;;;;;5098277;27;45410;-83
2021/12/15 03:21:51;;;;;;;;;47.33;39.67;;;;;;;;5116481;27;45413;-83
2021/12/15 03:24:19;;;;;;;;;46.50;40.00;;;;;;;;5116617;27;46561;-82
2021/12/15 03:26:54;;;;;;;;;46.75;36.75;;;;;;;;5116795;27;45770;-82
2021/12/15 03:35:48;;;;;;;;;46.50;38.25;;;;;;;;5115238;27;45829;-82
2021/12/15 03:37:37;;;;;;;;;45.00;37.75;;;;;;;;5101233;27;45722;-82
2021/12/15 03:40:02;;;;;;;;;44.50;38.75;;;;;;;;5098137;27;45444;-83
2021/12/15 03:42:30;;;;;;;;;53.67;44.67;;;;;;;;5116717;27;45346;-82
2021/12/15 03:44:57;;;;;;;;;50.00;39.00;;;;;;;;5097921;27;46353;-82
2021/12/15 03:47:25;;;;;;;;;49.75;40.25;;;;;;;;5098018;27;45472;-84
2021/12/15 03:49:51;;;;;;;;;51.00;41.75;;;;;;;;5117179;27;45518;-83
2021/12/15 03:52:16;;;;;;;;;51.75;41.50;;;;;;;;5115732;27;45396;-83
2021/12/15 03:54:42;;;;;;;;;40.75;35.50;;;;;;;;5116456;27;45653;-83
2021/12/15 03:57:08;;;;;;;;;51.50;41.00;;;;;;;;5116195;27;45424;-82
2021/12/15 03:59:34;;;;;;;;;50.00;41.33;;;;;;;;5098254;27;45437;-82
2021/12/15 04:02:00;;;;;;;;;48.50;40.75;;;;;;;;5116449;27;45406;-83
2021/12/15 04:04:25;;;;;;;;;44.75;40.00;;;;;;;;5097656;27;47518;-84
2021/12/15 04:06:51;;;;;;;;;43.67;38.00;;;;;;;;5115975;27;44831;-83
2021/12/15 04:09:16;;;;;;;;;46.33;37.67;;;;;;;;5097602;27;45559;-82
2021/12/15 04:11:42;;;;;;;;;49.25;42.50;;;;;;;;5116443;27;45350;-82
2021/12/15 04:14:11;;;;;;;;;42.00;37.75;;;;;;;;5116052;27;45415;-82
2021/12/15 04:19:09;;;;;;;;;47.00;39.00;;;;;;;;5116292;27;45423;-83
2021/12/15 04:21:38;;;;;;;;;50.00;42.00;;;;;;;;5097245;27;45653;-83
2021/12/15 04:24:03;;;;;;;;;49.25;40.00;;;;;;;;5115971;27;46320;-82
2021/12/15 04:26:28;;;;;;;;;48.75;40.50;;;;;;;;5115837;27;45515;-83
2021/12/15 04:28:54;;;;;;;;;42.33;38.00;;;;;;;;5097635;27;45433;-83
2021/12/15 04:31:21;;;;;;;;;40.50;37.00;;;;;;;;5115925;27;45477;-82
2021/12/15 04:33:55;;;;;;;;;47.25;39.75;;;;;;;;5097045;27;47488;-82
2021/12/15 04:36:23;;;;;;;;;52.75;43.50;;;;;;;;5096788;27;45314;-82
2021/12/15 04:38:48;;;;;;;;;50.50;40.00;;;;;;;;5115599;27;45409;-82
2021/12/15 04:41:18;;;;;;;;;46.75;39.75;;;;;;;;5097069;27;45621;-82
2021/12/15 04:43:44;;;;;;;;;47.00;40.00;;;;;;;;5115570;27;45616;-83
2021/12/15 04:46:11;;;;;;;;;55.00;42.00;;;;;;;;5115287;27;45858;-81
2021/12/15 04:48:37;;;;;;;;;41.00;37.50;;;;;;;;5115344;27;45328;-82
2021/12/15 04:51:03;;;;;;;;;51.75;40.75;;;;;;;;5115312;27;45618;-83
2021/12/15 04:53:28;;;;;;;;;48.00;38.00;;;;;;;;5115095;27;45678;-83
2021/12/15 04:55:54;;;;;;;;;52.00;42.33;;;;;;;;5115378;27;45576;-82
2021/12/15 04:58:19;;;;;;;;;45.00;38.00;;;;;;;;5115222;27;45454;-83
2021/12/15 05:00:46;;;;;;;;;47.67;38.67;;;;;;;;5115301;27;45344;-82
2021/12/15 05:03:12;;;;;;;;;45.00;38.00;;;;;;;;5115029;27;45342;-82
2021/12/15 05:05:38;;;;;;;;;48.75;38.75;;;;;;;;5096716;27;45325;-83
2021/12/15 05:08:03;;;;;;;;;45.50;37.75;;;;;;;;5096845;27;45425;-82
2021/12/15 05:10:29;;;;;;;;;51.50;42.00;;;;;;;;5115282;27;45336;-83
2021/12/15 05:12:55;;;;;;;;;49.75;39.25;;;;;;;;5096307;27;47019;-83
2021/12/15 05:15:20;;;;;;;;;46.75;38.00;;;;;;;;5115198;27;45351;-82
2021/12/15 05:17:46;;;;;;;;;44.33;36.00;;;;;;;;5096320;27;45471;-83
2021/12/15 05:20:11;;;;;;;;;40.25;35.75;;;;;;;;5096462;27;45339;-82
2021/12/15 05:22:37;;;;;;;;;47.00;39.25;;;;;;;;5095943;27;48661;-82
2021/12/15 05:25:03;;;;;;;;;42.00;35.75;;;;;;;;5115007;27;45469;-83
2021/12/15 05:27:28;;;;;;;;;42.50;38.25;;;;;;;;5115231;27;45318;-83
2021/12/15 05:29:54;;;;;;;;;43.50;36.00;;;;;;;;5115057;27;45452;-83
2021/12/15 05:32:21;;;;;;;;;47.67;40.67;;;;;;;;5114920;27;46642;-84
2021/12/15 05:34:47;;;;;;;;;35.75;33.75;;;;;;;;5114952;27;45510;-83
2021/12/15 05:37:13;;;;;;;;;43.25;38.00;;;;;;;;5114367;27;45291;-83
2021/12/15 05:39:40;;;;;;;;;45.25;39.25;;;;;;;;5096223;27;45669;-83
2021/12/15 05:42:05;;;;;;;;;42.25;37.25;;;;;;;;5114705;27;45416;-82
2021/12/15 05:44:31;;;;;;;;;46.50;40.00;;;;;;;;5114860;27;45300;-83
2021/12/15 05:46:56;;;;;;;;;47.00;38.00;;;;;;;;5114682;27;45512;-83
2021/12/15 05:49:22;;;;;;;;;39.50;37.00;;;;;;;;5096361;27;45403;-84
2021/12/15 05:51:47;;;;;;;;;39.33;36.00;;;;;;;;5113920;27;46546;-83
2021/12/15 05:54:13;;;;;;;;;48.50;39.50;;;;;;;;5095933;27;45533;-82
2021/12/15 05:56:38;;;;;;;;;45.33;37.33;;;;;;;;5095970;27;45372;-82
2021/12/15 05:59:04;;;;;;;;;48.00;40.50;;;;;;;;5113546;27;45487;-83
2021/12/15 06:01:29;;;;;;;;;47.25;37.50;;;;;;;;5114317;27;45461;-83
2021/12/15 06:03:55;;;;;;;;;39.75;36.25;;;;;;;;5095573;27;45434;-83
2021/12/15 06:06:20;;;;;;;;;36.50;34.75;;;;;;;;5114097;27;45428;-82
2021/12/15 06:08:46;;;;;;;;;42.33;35.00;;;;;;;;5095911;27;45352;-84
2021/12/15 06:11:11;;;;;;;;;39.67;35.00;;;;;;;;5095532;27;48109;-83
2021/12/15 06:13:36;;;;;;;;;37.67;32.00;;;;;;;;5095661;27;45480;-83
2021/12/15 06:16:04;;;;;;;;;35.00;33.33;;;;;;;;5095529;27;45394;-82
2021/12/15 06:18:29;;;;;;;;;38.25;35.00;;;;;;;;5095610;27;45336;-82
2021/12/15 06:20:55;;;;;;;;;36.67;34.67;;;;;;;;5095670;27;46406;-83
2021/12/15 06:23:22;;;;;;;;;36.25;32.75;;;;;;;;5095125;27;45530;-82
2021/12/15 06:25:49;;;;;;;;;26.00;24.00;;;;;;;;5114372;27;45462;-82
2021/12/15 06:28:15;;;;;;;;;34.50;33.25;;;;;;;;5114063;27;45511;-82
2021/12/15 06:30:41;;;;;;;;;39.50;35.25;;;;;;;;5095355;27;46275;-82
2021/12/15 06:33:06;;;;;;;;;30.50;27.75;;;;;;;;5095713;27;45837;-82
2021/12/15 06:35:32;;;;;;;;;35.00;29.00;;;;;;;;5095458;27;45368;-82
2021/12/15 06:37:57;;;;;;;;;34.50;30.50;;;;;;;;5095158;27;45532;-82
2021/12/15 06:40:22;;;;;;;;;33.67;31.00;;;;;;;;5095399;27;47167;-82
2021/12/15 06:42:48;;;;;;;;;36.00;34.33;;;;;;;;5113787;27;45391;-82
2021/12/15 06:45:17;;;;;;;;;33.25;31.25;;;;;;;;5095274;27;45519;-82
2021/12/15 06:58:24;;;;;;;;;36.25;34.50;;;;;;;;5113819;27;45406;-82
2021/12/15 07:00:52;;;;;;;;;34.00;31.75;;;;;;;;5113650;27;46326;-81
2021/12/15 07:03:18;;;;;;;;;32.50;29.00;;;;;;;;5094984;27;45332;-82
2021/12/15 07:05:43;;;;;;;;;31.75;30.75;;;;;;;;5095067;27;45516;-82
2021/12/15 07:08:09;;;;;;;;;36.25;33.75;;;;;;;;5094561;27;45304;-82
2021/12/15 07:10:37;;;;;;;;;31.00;29.25;;;;;;;;5098241;27;48154;-83
2021/12/15 07:13:03;;;;;;;;;36.25;30.50;;;;;;;;5098580;27;45827;-82
2021/12/15 07:15:28;;;;;;;;;31.25;28.00;;;;;;;;5117260;27;45296;-83
2021/12/15 07:18:01;;;;;;;;;31.25;29.75;;;;;;;;5098431;27;45368;-82
2021/12/15 07:20:47;;;;;;;;;31.00;29.75;;;;;;;;5098173;27;48035;-81
2021/12/15 07:23:15;;;;;;;;;31.25;28.75;;;;;;;;5116517;27;45496;-82
2021/12/15 07:25:41;;;;;;;;;30.00;27.25;;;;;;;;5098403;27;45353;-82
2021/12/15 07:28:07;;;;;;;;;34.75;30.50;;;;;;;;5098357;27;45550;-82
2021/12/15 07:30:33;;;;;;;;;30.50;29.25;;;;;;;;5098177;27;47131;-82
2021/12/15 07:32:59;;;;;;;;;36.00;30.50;;;;;;;;5116750;27;45894;-82
2021/12/15 07:35:25;;;;;;;;;34.75;29.50;;;;;;;;5116954;27;45527;-83
2021/12/15 07:37:51;;;;;;;;;29.00;27.50;;;;;;;;5116302;27;45655;-83
2021/12/15 07:40:20;;;;;;;;;34.50;29.75;;;;;;;;5097890;27;48000;-82
2021/12/15 07:43:03;;;;;;;;;29.75;26.00;;;;;;;;5116570;27;45156;-82
2021/12/15 07:45:28;;;;;;;;;31.50;29.75;;;;;;;;5098048;27;45401;-82
2021/12/15 07:47:55;;;;;;;;;33.00;29.67;;;;;;;;5098074;27;45518;-82
2021/12/15 07:50:20;;;;;;;;;32.00;29.75;;;;;;;;5116418;27;45657;-82
2021/12/15 07:52:49;;;;;;;;;36.00;31.00;;;;;;;;5115875;27;45427;-83
2021/12/15 07:55:15;;;;;;;;;30.25;27.75;;;;;;;;5097987;27;45411;-82
2021/12/15 07:57:40;;;;;;;;;35.50;32.75;;;;;;;;5116373;27;45344;-82
2021/12/15 08:00:07;;;;;;;;;32.67;30.00;;;;;;;;5097635;27;47363;-83
2021/12/15 08:02:32;;;;;;;;;30.00;28.25;;;;;;;;5116372;27;45499;-83
2021/12/15 08:04:57;;;;;;;;;30.00;27.33;;;;;;;;5097943;27;45532;-82
2021/12/15 08:07:23;;;;;;;;;28.67;27.00;;;;;;;;5097458;27;45452;-83
2021/12/15 08:09:49;;;;;;;;;29.75;27.50;;;;;;;;5097764;27;47389;-82
2021/12/15 08:12:15;;;;;;;;;34.75;31.50;;;;;;;;5116308;27;45319;-82
2021/12/15 08:14:40;;;;;;;;;34.50;33.25;;;;;;;;5097868;27;45712;-82
2021/12/15 08:17:05;;;;;;;;;48.67;41.00;;;;;;;;5097379;27;45555;-82
2021/12/15 08:19:31;;;;;;;;;34.33;30.33;;;;;;;;5097461;27;47049;-82
2021/12/15 08:21:56;;;;;;;;;29.75;27.75;;;;;;;;5096353;27;45995;-82
2021/12/15 08:24:22;;;;;;;;;36.00;29.50;;;;;;;;5097509;27;45374;-84
2021/12/15 08:26:47;;;;;;;;;28.67;27.67;;;;;;;;5115890;27;45603;-83
2021/12/15 08:29:12;;;;;;;;;37.67;35.00;;;;;;;;5115753;27;45322;-82
2021/12/15 08:31:37;;;;;;;;;29.00;25.33;;;;;;;;5097142;27;45441;-82
2021/12/15 08:34:03;;;;;;;;;30.67;27.67;;;;;;;;5097340;27;44647;-84
2021/12/15 08:36:28;;;;;;;;;32.50;29.25;;;;;;;;5115647;27;45402;-82
2021/12/15 08:38:53;;;;;;;;;28.00;26.00;;;;;;;;5115721;27;45334;-82
2021/12/15 08:41:21;;;;;;;;;28.67;27.33;;;;;;;;5115740;27;45389;-82
2021/12/15 08:43:46;;;;;;;;;26.00;24.75;;;;;;;;5097235;27;45456;-82
2021/12/15 08:46:32;;;;;;;;;32.00;29.25;;;;;;;;5115788;27;45500;-83
2021/12/15 08:48:58;;;;;;;;;26.00;21.75;;;;;;;;5115565;27;46528;-82
2021/12/15 08:51:26;;;;;;;;;26.00;24.00;;;;;;;;5096653;27;45772;-82
2021/12/15 08:53:53;;;;;;;;;36.50;34.50;;;;;;;;5115703;27;45224;-83
2021/12/15 08:56:18;;;;;;;;;30.75;28.50;;;;;;;;5115532;27;45290;-83
2021/12/15 08:58:43;;;;;;;;;26.67;24.67;;;;;;;;5096772;27;47189;-83
2021/12/15 09:01:09;;;;;;;;;30.00;30.00;;;;;;;;5096618;27;45960;-83
2021/12/15 09:03:35;;;;;;;;;27.75;24.25;;;;;;;;5096922;27;45806;-83
2021/12/15 09:06:01;;;;;;;;;35.50;32.50;;;;;;;;5115154;27;45511;-83
2021/12/15 09:08:27;;;;;;;;;30.75;27.25;;;;;;;;5115453;27;46948;-83
2021/12/15 09:10:54;;;;;;;;;29.75;27.50;;;;;;;;5115216;27;45518;-82
2021/12/15 09:13:19;;;;;;;;;30.25;27.50;;;;;;;;5115407;27;45498;-82
2021/12/15 09:15:45;;;;;;;;;49.50;39.25;;;;;;;;5096725;27;45540;-83
2021/12/15 09:18:11;;;;;;;;;31.00;28.00;;;;;;;;5114982;27;45641;-83
2021/12/15 09:20:36;;;;;;;;;30.50;27.00;;;;;;;;5115339;27;45991;-83
2021/12/15 09:23:03;;;;;;;;;31.00;27.50;;;;;;;;5096543;27;45699;-81
2021/12/15 09:25:29;;;;;;;;;27.75;27.25;;;;;;;;5115092;27;45504;-83
2021/12/15 09:27:58;;;;;;;;;32.50;30.50;;;;;;;;5114885;27;45485;-82
2021/12/15 09:30:23;;;;;;;;;28.00;26.25;;;;;;;;5096373;27;45319;-83
2021/12/15 09:32:49;;;;;;;;;35.00;28.00;;;;;;;;5114994;27;45436;-83
2021/12/15 09:35:15;;;;;;;;;30.50;27.25;;;;;;;;5096369;27;45298;-84
2021/12/15 09:37:40;;;;;;;;;21.25;21.25;;;;;;;;5095804;27;48438;-81
2021/12/15 09:40:06;;;;;;;;;29.75;26.75;;;;;;;;5096021;27;46350;-81
2021/12/15 09:42:36;;;;;;;;;27.75;25.00;;;;;;;;5096156;27;45531;-81
2021/12/15 09:45:19;;;;;;;;;28.00;27.00;;;;;;;;5096182;27;45516;-81
2021/12/15 10:06:35;;;;;;;;;25.75;22.00;;;;;;;;5113918;27;45477;-81
2021/12/15 10:19:46;;;;;;;;;22.50;20.25;;;;;;;;5114200;27;45551;-81
2021/12/15 10:22:18;;;;;;;;;26.25;24.00;;;;;;;;5095584;27;45727;-81
2021/12/15 10:24:51;;;;;;;;;27.75;23.75;;;;;;;;5114836;27;45376;-81
2021/12/15 10:27:18;;;;;;;;;42.00;37.00;;;;;;;;5095644;27;45488;-82
2021/12/15 10:30:01;;;;;;;;;34.00;30.50;;;;;;;;5095361;27;47084;-83
2021/12/15 10:32:31;;;;;;;;;28.75;28.00;;;;;;;;5095507;27;45815;-81
2021/12/15 10:35:18;;;;;;;;;25.50;21.50;;;;;;;;5114024;27;45420;-80
2021/12/15 10:38:03;;;;;;;;;26.75;23.75;;;;;;;;5095497;27;45531;-82
2021/12/15 10:40:28;;;;;;;;;22.25;20.25;;;;;;;;5095139;27;48175;-82
2021/12/15 10:43:01;;;;;;;;;25.33;18.00;;;;;;;;5095321;27;46001;-81
2021/12/15 10:45:32;;;;;;;;;19.75;15.25;;;;;;;;5117150;27;45417;-81
2021/12/15 10:47:57;;;;;;;;;13.50;13.00;;;;;;;;5099108;27;45273;-81
2021/12/15 10:50:23;;;;;;;;;18.00;15.33;;;;;;;;5117184;27;47072;-82
2021/12/15 10:52:53;;;;;;;;;16.25;14.50;;;;;;;;5098268;27;45977;-81
2021/12/15 10:55:18;;;;;;;;;19.00;17.75;;;;;;;;5117949;27;45508;-84
2021/12/15 10:57:44;;;;;;;;;19.00;18.50;;;;;;;;5117251;27;45574;-80
2021/12/15 11:00:12;;;;;;;;;13.00;13.00;;;;;;;;5117463;27;45550;-81
2021/12/15 11:02:38;;;;;;;;;19.50;17.50;;;;;;;;5099042;27;45875;-81
2021/12/15 11:05:06;;;;;;;;;16.50;16.00;;;;;;;;5098698;27;45291;-81
2021/12/15 11:07:31;;;;;;;;;18.75;14.25;;;;;;;;5098301;27;45549;-81
2021/12/15 11:09:56;;;;;;;;;12.33;12.33;;;;;;;;5098678;27;47051;-81
2021/12/15 11:12:21;;;;;;;;;14.67;14.00;;;;;;;;5117455;27;45722;-80
2021/12/15 11:14:48;;;;;;;;;13.33;12.67;;;;;;;;5098810;27;45341;-82
2021/12/15 11:17:16;;;;;;;;;12.00;10.75;;;;;;;;5098516;27;45328;-80
2021/12/15 11:19:53;;;;;;;;;19.00;15.50;;;;;;;;5116824;27;45480;-82
2021/12/15 11:22:34;;;;;;;;;6.00;5.00;;;;;;;;5098026;27;45366;-82
2021/12/15 11:25:00;;;;;;;;;13.75;12.50;;;;;;;;5098446;27;45420;-81
2021/12/15 11:27:25;;;;;;;;;11.75;11.25;;;;;;;;5117257;27;45495;-84
2021/12/15 11:29:50;;;;;;;;;15.00;14.00;;;;;;;;5116920;27;45475;-81
2021/12/15 11:32:54;;;;;;;;;16.00;15.33;;;;;;;;5116896;27;45347;-81
2021/12/15 11:35:27;;;;;;;;;14.25;14.25;;;;;;;;5052516;28;45498;-81
2021/12/15 11:37:53;;;;;;;;;15.50;14.00;;;;;;;;5051999;28;45576;-81
2021/12/15 11:40:33;;;;;;;;;14.67;14.00;;;;;;;;5085159;27;45784;-82
2021/12/15 11:42:59;;;;;;;;;13.50;13.50;;;;;;;;5098160;27;46011;-81
2021/12/15 11:45:25;;;;;;;;;10.75;10.00;;;;;;;;5098192;27;45425;-82
2021/12/15 11:47:50;;;;;;;;;15.25;13.50;;;;;;;;5098259;27;45310;-80
2021/12/15 11:50:17;;;;;;;;;17.00;16.00;;;;;;;;5098124;27;46215;-82
2021/12/15 11:52:45;;;;;;;;;15.50;15.00;;;;;;;;5097165;27;45863;-81
2021/12/15 11:55:22;;;;;;;;;16.75;15.25;;;;;;;;5097031;27;45356;-81
2021/12/15 11:57:47;;;;;;;;;16.25;15.50;;;;;;;;5116491;27;45484;-81
2021/12/15 12:00:14;;;;;;;;;20.00;18.75;;;;;;;;5116453;27;46632;-82
2021/12/15 12:02:42;;;;;;;;;17.75;16.00;;;;;;;;5097103;27;45349;-82
2021/12/15 12:05:11;;;;;;;;;14.75;14.75;;;;;;;;5116545;27;45509;-82
2021/12/15 12:07:42;;;;;;;;;16.00;16.00;;;;;;;;5097495;27;45347;-82
2021/12/15 12:10:11;;;;;;;;;14.50;14.25;;;;;;;;5097581;27;48401;-81
2021/12/15 12:12:41;;;;;;;;;16.25;15.25;;;;;;;;5116189;27;45833;-80
2021/12/15 12:15:13;;;;;;;;;20.00;15.50;;;;;;;;5098138;27;45643;-81
2021/12/15 12:17:39;;;;;;;;;17.50;17.00;;;;;;;;5097620;27;45303;-82
2021/12/15 12:20:10;;;;;;;;;16.25;15.25;;;;;;;;5097397;27;46176;-82
2021/12/15 12:22:36;;;;;;;;;19.75;17.75;;;;;;;;5115760;27;45352;-82
2021/12/15 12:25:04;;;;;;;;;16.25;16.25;;;;;;;;5116316;27;45510;-83
2021/12/15 12:27:31;;;;;;;;;15.50;15.50;;;;;;;;5097374;27;45624;-82
2021/12/15 12:29:57;;;;;;;;;18.50;16.25;;;;;;;;5097614;27;48410;-81
2021/12/15 12:32:23;;;;;;;;;14.75;14.75;;;;;;;;5115893;27;46011;-82
2021/12/15 12:34:50;;;;;;;;;14.50;14.00;;;;;;;;5097121;27;45664;-81
2021/12/15 12:37:16;;;;;;;;;12.75;12.25;;;;;;;;5115493;27;45458;-82
2021/12/15 12:39:43;;;;;;;;;13.00;13.00;;;;;;;;5116250;27;45788;-83
2021/12/15 12:42:09;;;;;;;;;14.50;12.50;;;;;;;;5115754;27;45836;-82
2021/12/15 12:44:39;;;;;;;;;13.25;10.50;;;;;;;;5097146;27;45312;-84
2021/12/15 12:47:19;;;;;;;;;11.25;10.25;;;;;;;;5097076;27;45415;-81
2021/12/15 13:00:54;;;;;;;;;11.00;11.00;;;;;;;;5115156;27;45456;-81
2021/12/15 13:03:23;;;;;;;;;16.50;15.75;;;;;;;;5096786;27;45382;-81
2021/12/15 13:05:50;;;;;;;;;16.50;13.00;;;;;;;;5096412;27;45539;-81
2021/12/15 13:08:17;;;;;;;;;14.00;13.75;;;;;;;;5115018;27;45576;-81
2021/12/15 13:11:01;;;;;;;;;13.75;12.75;;;;;;;;5115205;27;45440;-81
2021/12/15 13:13:31;;;;;;;;;7.25;6.00;;;;;;;;5096748;27;45753;-81
2021/12/15 13:16:03;;;;;;;;;13.00;12.50;;;;;;;;5091897;27;45451;-81
2021/12/15 13:18:42;;;;;;;;;8.75;8.75;;;;;;;;5096710;27;45568;-82
2021/12/15 13:21:10;;;;;;;;;10.50;9.00;;;;;;;;5096097;27;46020;-81
2021/12/15 13:23:49;;;;;;;;;13.00;12.25;;;;;;;;5115360;27;45600;-81
2021/12/15 13:29:19;;;;;;;;;10.50;8.00;;;;;;;;5115256;27;45298;-82
2021/12/15 13:31:52;;;;;;;;;8.75;7.25;;;;;;;;5115010;27;46688;-81
2021/12/15 13:34:32;;;;;;;;;7.25;6.00;;;;;;;;5115103;27;45524;-81
2021/12/15 13:36:59;;;;;;;;;8.00;8.00;;;;;;;;5114695;27;45423;-82
2021/12/15 13:39:24;;;;;;;;;10.25;9.25;;;;;;;;5096320;27;45563;-81
2021/12/15 13:42:14;;;;;;;;;11.67;11.33;;;;;;;;5114775;27;46392;-81
2021/12/15 13:44:40;;;;;;;;;12.50;12.00;;;;;;;;5096061;27;45943;-81
2021/12/15 13:47:13;;;;;;;;;9.50;8.50;;;;;;;;5096264;27;45796;-81
2021/12/15 13:49:42;;;;;;;;;11.50;11.00;;;;;;;;5114724;27;45391;-81
2021/12/15 13:52:14;;;;;;;;;7.00;6.75;;;;;;;;5092013;27;46094;-81
2021/12/15 13:54:40;;;;;;;;;9.50;9.00;;;;;;;;5092664;27;45612;-81
2021/12/15 13:57:11;;;;;;;;;6.75;6.75;;;;;;;;5092785;27;45515;-81
2021/12/15 13:59:41;;;;;;;;;8.00;8.00;;;;;;;;5094118;27;45429;-81
2021/12/15 14:02:15;;;;;;;;;9.25;7.25;;;;;;;;5092497;27;48284;-81
2021/12/15 14:04:52;;;;;;;;;11.00;11.00;;;;;;;;5092481;27;45527;-81
2021/12/15 14:07:35;;;;;;;;;9.00;8.00;;;;;;;;5093669;27;45359;-81
2021/12/15 14:10:21;;;;;;;;;6.75;6.75;;;;;;;;5093913;27;45382;-81
2021/12/15 14:12:46;;;;;;;;;9.50;9.00;;;;;;;;5092379;27;48282;-83
2021/12/15 14:15:27;;;;;;;;;8.50;8.50;;;;;;;;5093933;27;45461;-82
2021/12/15 14:18:06;;;;;;;;;9.00;8.00;;;;;;;;5092264;27;45457;-82
2021/12/15 14:20:34;;;;;;;;;11.25;9.50;;;;;;;;5091196;27;45356;-81
2021/12/15 14:23:02;;;;;;;;;6.50;6.50;;;;;;;;5092193;27;46331;-82
2021/12/15 14:25:27;;;;;;;;;8.50;8.50;;;;;;;;5092237;27;45315;-81
2021/12/15 14:27:52;;;;;;;;;5.00;5.00;;;;;;;;5092402;27;45519;-80
2021/12/15 14:30:18;;;;;;;;;8.67;7.33;;;;;;;;5092131;27;45385;-81
2021/12/15 14:32:44;;;;;;;;;8.50;6.75;;;;;;;;5093229;27;45627;-82
2021/12/15 14:35:23;;;;;;;;;6.75;6.50;;;;;;;;5092100;27;45400;-81
2021/12/15 14:37:48;;;;;;;;;8.75;6.00;;;;;;;;5091704;27;45466;-80
2021/12/15 14:40:14;;;;;;;;;6.50;6.00;;;;;;;;5093411;27;45457;-81
2021/12/15 14:42:42;;;;;;;;;10.00;9.00;;;;;;;;5091997;27;47191;-81
2021/12/15 14:45:08;;;;;;;;;6.75;6.50;;;;;;;;5093290;27;45352;-82
2021/12/15 14:47:36;;;;;;;;;8.00;8.00;;;;;;;;5093975;27;45642;-81
2021/12/15 14:50:05;;;;;;;;;9.75;8.75;;;;;;;;5093298;27;45595;-81
2021/12/15 14:52:33;;;;;;;;;5.75;5.75;;;;;;;;5105877;27;48342;-82
2021/12/15 14:55:00;;;;;;;;;8.50;6.75;;;;;;;;5114186;27;45885;-81
2021/12/15 14:57:27;;;;;;;;;5.25;5.00;;;;;;;;5114329;27;45614;-82
2021/12/15 14:59:52;;;;;;;;;7.25;6.00;;;;;;;;5114126;27;45452;-81
2021/12/15 15:02:37;;;;;;;;;7.67;6.33;;;;;;;;5095179;27;46975;-81
2021/12/15 15:05:11;;;;;;;;;5.25;5.00;;;;;;;;5113735;27;45465;-82
2021/12/15 15:07:41;;;;;;;;;7.25;7.25;;;;;;;;5094834;27;45441;-80
2021/12/15 15:10:08;;;;;;;;;9.00;9.00;;;;;;;;5095107;27;45676;-81
2021/12/15 15:12:35;;;;;;;;;5.75;5.75;;;;;;;;5094971;27;47162;-81
2021/12/15 15:15:05;;;;;;;;;9.00;7.75;;;;;;;;5095184;27;45243;-80
2021/12/15 15:17:35;;;;;;;;;7.00;7.00;;;;;;;;5089992;27;45460;-81
2021/12/15 15:20:10;;;;;;;;;10.00;10.00;;;;;;;;5113421;27;45301;-81
2021/12/15 15:22:35;;;;;;;;;10.50;8.75;;;;;;;;5112682;27;46881;-81
2021/12/15 15:25:03;;;;;;;;;10.67;9.00;;;;;;;;5113600;27;45232;-81
2021/12/15 15:27:28;;;;;;;;;7.25;7.25;;;;;;;;5113574;27;45453;-83
2021/12/15 15:29:55;;;;;;;;;10.00;10.00;;;;;;;;5095571;27;45587;-82
2021/12/15 15:32:20;;;;;;;;;11.50;10.00;;;;;;;;5116557;27;46412;-81
2021/12/15 15:34:46;;;;;;;;;13.00;13.00;;;;;;;;5098412;27;45446;-81
2021/12/15 15:37:14;;;;;;;;;11.25;11.00;;;;;;;;5097990;27;45440;-81
2021/12/15 15:39:39;;;;;;;;;11.00;11.00;;;;;;;;5116784;27;45324;-81
2021/12/15 15:42:04;;;;;;;;;16.00;14.00;;;;;;;;5117113;27;46504;-81
2021/12/15 15:44:36;;;;;;;;;11.50;10.75;;;;;;;;5098154;27;45259;-80
2021/12/15 15:47:02;;;;;;;;;13.00;13.00;;;;;;;;5098364;27;45311;-82
2021/12/15 15:49:27;;;;;;;;;15.00;13.75;;;;;;;;5116316;27;45540;-82
2021/12/15 15:51:52;;;;;;;;;13.67;12.00;;;;;;;;5115765;27;45549;-81
2021/12/15 15:54:21;;;;;;;;;10.00;10.00;;;;;;;;5097694;27;45752;-81
2021/12/15 15:56:47;;;;;;;;;9.75;9.75;;;;;;;;5116651;27;45373;-81
2021/12/15 15:59:14;;;;;;;;;14.25;13.00;;;;;;;;5116410;27;45402;-80
2021/12/15 16:01:42;;;;;;;;;18.25;16.25;;;;;;;;5116331;27;45440;-82
2021/12/15 16:04:09;;;;;;;;;12.75;12.75;;;;;;;;5116358;27;45911;-81
2021/12/15 16:06:34;;;;;;;;;12.00;10.50;;;;;;;;5116143;27;45378;-83
2021/12/15 16:09:00;;;;;;;;;11.25;11.25;;;;;;;;5097670;27;45298;-81
2021/12/15 16:11:27;;;;;;;;;9.25;9.25;;;;;;;;5097580;27;47249;-82
2021/12/15 16:13:53;;;;;;;;;11.50;11.00;;;;;;;;5116779;27;45602;-81
2021/12/15 16:16:30;;;;;;;;;12.50;11.50;;;;;;;;5116571;27;45705;-81
2021/12/15 16:19:00;;;;;;;;;35.00;33.25;;;;;;;;5097522;27;46299;-81
2021/12/15 16:23:55;;;;;;;;;11.00;10.25;;;;;;;;5116019;27;45505;-81
2021/12/15 16:26:25;;;;;;;;;10.50;10.50;;;;;;;;5097722;27;45326;-82
2021/12/15 16:28:50;;;;;;;;;9.25;9.00;;;;;;;;5097572;27;45383;-81
2021/12/15 16:31:33;;;;;;;;;10.00;9.00;;;;;;;;5097366;27;47979;-80
2021/12/15 16:33:58;;;;;;;;;12.75;12.75;;;;;;;;5097181;27;45366;-81
2021/12/15 16:36:23;;;;;;;;;12.33;12.33;;;;;;;;5115643;27;45468;-81
2021/12/15 16:38:52;;;;;;;;;10.67;9.67;;;;;;;;5097043;27;45556;-81